Fast Ferries Andros — SVQE — position and weather

sailwx.info

Track history (hours):
 
Tides and Currents Weather Stations Pressure Air Temp Water Temp Dewpoint Dewpoint Depression Visibility Wind Speed Wind Dir Waves Ship Positions

Fast Ferries Andros

Last reported at 2018-Jun-22 04:55 UTC. Time now 2018-Jun-22 05:22 UTC.
Position N 37°60' E 024°09'.

Length 115 m; draft 4.5 m.

Type: Passenger vessel. MMSI: 237955000.

Date/timePositionNaut miles runAvg speedWind from/ knotsBaromVisibWave heightAir tempDewpointWater temp
2018-Jun-22 04:55N 37°60' E 024°09'6 0.6
2018-Jun-21 19:54N 38°01' E 024°02'6 1.5
2018-Jun-21 16:15N 37°60' E 024°09'518.9
2018-Jun-21 16:00N 38°01' E 024°03'1 0.8
2018-Jun-21 14:58N 38°01' E 024°02'5315.9
2018-Jun-21 11:37N 37°36' E 025°02'219.4
2018-Jun-21 11:30N 37°35' E 025°04'510.6
2018-Jun-21 11:00N 37°32' E 025°09'713.7
2018-Jun-21 10:30N 37°28' E 025°17'2 4.8
2018-Jun-21 10:00N 37°28' E 025°20'0 0.0
2018-Jun-21 09:29N 37°28' E 025°20'0 0.3
2018-Jun-21 09:00N 37°28' E 025°19'918.2
2018-Jun-21 08:30N 37°32' E 025°09'3 6.5
2018-Jun-21 08:00N 37°34' E 025°06'5316.6
2018-Jun-21 04:50N 37°60' E 024°08'5 0.4
2018-Jun-20 14:52N 38°01' E 024°02'5416.1
2018-Jun-20 11:29N 37°36' E 025°03'613.3
2018-Jun-20 11:00N 37°32' E 025°09'611.8
2018-Jun-20 10:30N 37°29' E 025°15'3 6.9
2018-Jun-20 10:01N 37°28' E 025°20'0 0.0
2018-Jun-20 09:31N 37°28' E 025°20'2 3.1
2018-Jun-20 09:00N 37°28' E 025°18'815.6
2018-Jun-20 08:30N 37°32' E 025°09'510.3
2018-Jun-20 08:01N 37°35' E 025°04'4916.4
2018-Jun-20 05:00N 37°59' E 024°10'7 0.5
2018-Jun-19 14:59N 38°01' E 024°02'5516.0
2018-Jun-19 11:31N 37°35' E 025°03'119.4
2018-Jun-19 11:29N 37°35' E 025°04'510.0
2018-Jun-19 11:00N 37°32' E 025°09'613.0
2018-Jun-19 10:30N 37°29' E 025°16'3 5.7
2018-Jun-19 10:00N 37°28' E 025°20'0 0.0
2018-Jun-19 09:30N 37°28' E 025°20'0 0.0
2018-Jun-19 09:00N 37°28' E 025°20'714.0
2018-Jun-19 08:31N 37°31' E 025°12'5 9.5
2018-Jun-19 08:01N 37°33' E 025°06'5316.8
2018-Jun-19 04:52N 37°60' E 024°09'5 0.4
2018-Jun-18 14:51N 38°01' E 024°02'5316.2
2018-Jun-18 11:36N 37°36' E 025°01'219.9
2018-Jun-18 11:30N 37°35' E 025°03'611.5
2018-Jun-18 11:00N 37°32' E 025°09'611.5
2018-Jun-18 10:28N 37°29' E 025°16'3 6.8
2018-Jun-18 10:01N 37°28' E 025°20'0 0.0
2018-Jun-18 09:31N 37°28' E 025°20'0 0.3
2018-Jun-18 09:00N 37°28' E 025°19'918.3
2018-Jun-18 08:31N 37°32' E 025°09'4 7.3
2018-Jun-18 08:00N 37°34' E 025°05'5216.5
2018-Jun-18 04:52N 37°60' E 024°09'5 0.6
2018-Jun-17 20:18N 38°01' E 024°02'5 1.5
2018-Jun-17 16:38N 37°60' E 024°09'220.4
2018-Jun-17 16:30N 38°00' E 024°06'3 3.3
2018-Jun-17 15:33N 38°01' E 024°02'117.7
2018-Jun-17 15:30N 38°01' E 024°03'5215.7
2018-Jun-17 12:12N 37°37' E 025°01'419.7
2018-Jun-17 12:00N 37°34' E 025°05'4 7.8
2018-Jun-17 11:30N 37°32' E 025°09'612.8
2018-Jun-17 11:00N 37°29' E 025°16'3 5.9
2018-Jun-17 10:30N 37°28' E 025°20'0 0.0
2018-Jun-17 10:00N 37°28' E 025°20'0 0.0
2018-Jun-17 09:30N 37°28' E 025°20'1 1.0
2018-Jun-17 08:59N 37°28' E 025°19'817.9
2018-Jun-17 08:31N 37°32' E 025°10'3 7.0
2018-Jun-17 08:01N 37°33' E 025°06'5216.8
2018-Jun-17 04:54N 37°60' E 024°09'5 0.4
2018-Jun-16 15:20N 38°01' E 024°02'5316.0
2018-Jun-16 12:00N 37°36' E 025°02'714.6
2018-Jun-16 11:30N 37°32' E 025°09'612.9
2018-Jun-16 11:01N 37°29' E 025°16'3 5.5
2018-Jun-16 10:30N 37°28' E 025°20'0 0.0
2018-Jun-16 10:00N 37°28' E 025°20'0 0.0
2018-Jun-16 09:30N 37°28' E 025°20'1 1.8
2018-Jun-16 09:00N 37°28' E 025°18'816.7
2018-Jun-16 08:30N 37°32' E 025°09'5 9.6
2018-Jun-16 08:00N 37°34' E 025°04'5116.4
2018-Jun-16 04:55N 37°60' E 024°08'5 1.5
2018-Jun-16 01:31N 38°01' E 024°02'019.4
2018-Jun-16 01:30N 38°01' E 024°02'5619.3
2018-Jun-15 22:37N 37°34' E 025°04'319.9
2018-Jun-15 22:28N 37°32' E 025°07'919.3
2018-Jun-15 22:01N 37°28' E 025°17'2 3.3
2018-Jun-15 21:30N 37°28' E 025°19'5 9.5
2018-Jun-15 21:00N 37°30' E 025°14'4 8.9
2018-Jun-15 20:31N 37°32' E 025°09'713.8
2018-Jun-15 20:00N 37°36' E 025°02'4815.2
2018-Jun-15 16:53N 37°59' E 024°10'7 3.6
2018-Jun-15 14:58N 38°02' E 024°01'5215.6
2018-Jun-15 11:39N 37°38' E 024°60'319.7
2018-Jun-15 11:30N 37°36' E 025°02'713.5
2018-Jun-15 11:00N 37°32' E 025°09'611.2
2018-Jun-15 10:30N 37°29' E 025°15'4 7.4
2018-Jun-15 10:00N 37°28' E 025°20'0 0.0
2018-Jun-15 09:30N 37°28' E 025°20'1 2.4
2018-Jun-15 09:00N 37°28' E 025°18'816.3
2018-Jun-15 08:30N 37°32' E 025°09'510.1
2018-Jun-15 08:00N 37°35' E 025°04'5016.2
2018-Jun-15 04:55N 37°60' E 024°09'6 0.4
2018-Jun-14 14:50N 38°01' E 024°02'5216.0
2018-Jun-14 11:36N 37°37' E 025°00'219.9
2018-Jun-14 11:30N 37°36' E 025°02'713.8
2018-Jun-14 11:00N 37°32' E 025°09'611.1
2018-Jun-14 10:30N 37°29' E 025°15'4 7.6
2018-Jun-14 10:00N 37°28' E 025°20'0 0.0
2018-Jun-14 09:30N 37°28' E 025°20'0 0.1
2018-Jun-14 09:01N 37°28' E 025°20'918.3
2018-Jun-14 08:30N 37°32' E 025°09'4 8.4
2018-Jun-14 08:00N 37°34' E 025°05'54 3.1
2018-Jun-13 14:42N 38°01' E 024°05'5216.2
2018-Jun-13 11:30N 37°36' E 025°03'612.9
2018-Jun-13 11:00N 37°32' E 025°09'712.7
2018-Jun-13 10:26N 37°28' E 025°17'2 4.9
2018-Jun-13 10:00N 37°28' E 025°20'0 0.0
2018-Jun-13 09:30N 37°28' E 025°20'0 0.3
2018-Jun-13 09:00N 37°28' E 025°20'917.6
2018-Jun-13 08:30N 37°32' E 025°10'510.2
2018-Jun-13 08:00N 37°34' E 025°04'5116.4
2018-Jun-13 04:54N 37°60' E 024°08'5 0.4
2018-Jun-12 15:01N 38°01' E 024°02'016.7
2018-Jun-12 15:00N 38°01' E 024°02'5416.2
2018-Jun-12 11:39N 37°36' E 025°03'319.3
2018-Jun-12 11:30N 37°34' E 025°05'4 7.5
2018-Jun-12 11:00N 37°32' E 025°09'612.8
2018-Jun-12 10:30N 37°29' E 025°16'3 6.0
2018-Jun-12 10:00N 37°28' E 025°20'0 0.0
2018-Jun-12 09:30N 37°28' E 025°20'0 0.2
2018-Jun-12 09:00N 37°28' E 025°19'918.1
2018-Jun-12 08:30N 37°32' E 025°09'5 9.7
2018-Jun-12 08:00N 37°35' E 025°04'1219.8
2018-Jun-12 07:23N 37°43' E 024°53'  
Track history (hours):
 
Tides and Currents Weather Stations Pressure Air Temp Water Temp Dewpoint Dewpoint Depression Visibility Wind Speed Wind Dir Waves Ship Positions

Fast Ferries Andros

Last reported at 2018-Jun-22 04:55 UTC. Time now 2018-Jun-22 05:22 UTC.
Position N 37°60' E 024°09'.

Length 115 m; draft 4.5 m.

Type: Passenger vessel. MMSI: 237955000.

Date/timePositionNaut miles runAvg speedWind from/ knotsBaromVisibWave heightAir tempDewpointWater temp
2018-Jun-22 04:55N 37°60' E 024°09'6 0.6
2018-Jun-21 19:54N 38°01' E 024°02'6 1.5
2018-Jun-21 16:15N 37°60' E 024°09'518.9
2018-Jun-21 16:00N 38°01' E 024°03'1 0.8
2018-Jun-21 14:58N 38°01' E 024°02'5315.9
2018-Jun-21 11:37N 37°36' E 025°02'219.4
2018-Jun-21 11:30N 37°35' E 025°04'510.6
2018-Jun-21 11:00N 37°32' E 025°09'713.7
2018-Jun-21 10:30N 37°28' E 025°17'2 4.8
2018-Jun-21 10:00N 37°28' E 025°20'0 0.0
2018-Jun-21 09:29N 37°28' E 025°20'0 0.3
2018-Jun-21 09:00N 37°28' E 025°19'918.2
2018-Jun-21 08:30N 37°32' E 025°09'3 6.5
2018-Jun-21 08:00N 37°34' E 025°06'5316.6
2018-Jun-21 04:50N 37°60' E 024°08'5 0.4
2018-Jun-20 14:52N 38°01' E 024°02'5416.1
2018-Jun-20 11:29N 37°36' E 025°03'613.3
2018-Jun-20 11:00N 37°32' E 025°09'611.8
2018-Jun-20 10:30N 37°29' E 025°15'3 6.9
2018-Jun-20 10:01N 37°28' E 025°20'0 0.0
2018-Jun-20 09:31N 37°28' E 025°20'2 3.1
2018-Jun-20 09:00N 37°28' E 025°18'815.6
2018-Jun-20 08:30N 37°32' E 025°09'510.3
2018-Jun-20 08:01N 37°35' E 025°04'4916.4
2018-Jun-20 05:00N 37°59' E 024°10'7 0.5
2018-Jun-19 14:59N 38°01' E 024°02'5516.0
2018-Jun-19 11:31N 37°35' E 025°03'119.4
2018-Jun-19 11:29N 37°35' E 025°04'510.0
2018-Jun-19 11:00N 37°32' E 025°09'613.0
2018-Jun-19 10:30N 37°29' E 025°16'3 5.7
2018-Jun-19 10:00N 37°28' E 025°20'0 0.0
2018-Jun-19 09:30N 37°28' E 025°20'0 0.0
2018-Jun-19 09:00N 37°28' E 025°20'714.0
2018-Jun-19 08:31N 37°31' E 025°12'5 9.5
2018-Jun-19 08:01N 37°33' E 025°06'5316.8
2018-Jun-19 04:52N 37°60' E 024°09'5 0.4
2018-Jun-18 14:51N 38°01' E 024°02'5316.2
2018-Jun-18 11:36N 37°36' E 025°01'219.9
2018-Jun-18 11:30N 37°35' E 025°03'611.5
2018-Jun-18 11:00N 37°32' E 025°09'611.5
2018-Jun-18 10:28N 37°29' E 025°16'3 6.8
2018-Jun-18 10:01N 37°28' E 025°20'0 0.0
2018-Jun-18 09:31N 37°28' E 025°20'0 0.3
2018-Jun-18 09:00N 37°28' E 025°19'918.3
2018-Jun-18 08:31N 37°32' E 025°09'4 7.3
2018-Jun-18 08:00N 37°34' E 025°05'5216.5
2018-Jun-18 04:52N 37°60' E 024°09'5 0.6
2018-Jun-17 20:18N 38°01' E 024°02'5 1.5
2018-Jun-17 16:38N 37°60' E 024°09'220.4
2018-Jun-17 16:30N 38°00' E 024°06'3 3.3
2018-Jun-17 15:33N 38°01' E 024°02'117.7
2018-Jun-17 15:30N 38°01' E 024°03'5215.7
2018-Jun-17 12:12N 37°37' E 025°01'419.7
2018-Jun-17 12:00N 37°34' E 025°05'4 7.8
2018-Jun-17 11:30N 37°32' E 025°09'612.8
2018-Jun-17 11:00N 37°29' E 025°16'3 5.9
2018-Jun-17 10:30N 37°28' E 025°20'0 0.0
2018-Jun-17 10:00N 37°28' E 025°20'0 0.0
2018-Jun-17 09:30N 37°28' E 025°20'1 1.0
2018-Jun-17 08:59N 37°28' E 025°19'817.9
2018-Jun-17 08:31N 37°32' E 025°10'3 7.0
2018-Jun-17 08:01N 37°33' E 025°06'5216.8
2018-Jun-17 04:54N 37°60' E 024°09'5 0.4
2018-Jun-16 15:20N 38°01' E 024°02'5316.0
2018-Jun-16 12:00N 37°36' E 025°02'714.6
2018-Jun-16 11:30N 37°32' E 025°09'612.9
2018-Jun-16 11:01N 37°29' E 025°16'3 5.5
2018-Jun-16 10:30N 37°28' E 025°20'0 0.0
2018-Jun-16 10:00N 37°28' E 025°20'0 0.0
2018-Jun-16 09:30N 37°28' E 025°20'1 1.8
2018-Jun-16 09:00N 37°28' E 025°18'816.7
2018-Jun-16 08:30N 37°32' E 025°09'5 9.6
2018-Jun-16 08:00N 37°34' E 025°04'5116.4
2018-Jun-16 04:55N 37°60' E 024°08'5 1.5
2018-Jun-16 01:31N 38°01' E 024°02'019.4
2018-Jun-16 01:30N 38°01' E 024°02'5619.3
2018-Jun-15 22:37N 37°34' E 025°04'319.9
2018-Jun-15 22:28N 37°32' E 025°07'919.3
2018-Jun-15 22:01N 37°28' E 025°17'2 3.3
2018-Jun-15 21:30N 37°28' E 025°19'5 9.5
2018-Jun-15 21:00N 37°30' E 025°14'4 8.9
2018-Jun-15 20:31N 37°32' E 025°09'713.8
2018-Jun-15 20:00N 37°36' E 025°02'4815.2
2018-Jun-15 16:53N 37°59' E 024°10'7 3.6
2018-Jun-15 14:58N 38°02' E 024°01'5215.6
2018-Jun-15 11:39N 37°38' E 024°60'319.7
2018-Jun-15 11:30N 37°36' E 025°02'713.5
2018-Jun-15 11:00N 37°32' E 025°09'611.2
2018-Jun-15 10:30N 37°29' E 025°15'4 7.4
2018-Jun-15 10:00N 37°28' E 025°20'0 0.0
2018-Jun-15 09:30N 37°28' E 025°20'1 2.4
2018-Jun-15 09:00N 37°28' E 025°18'816.3
2018-Jun-15 08:30N 37°32' E 025°09'510.1
2018-Jun-15 08:00N 37°35' E 025°04'5016.2
2018-Jun-15 04:55N 37°60' E 024°09'6 0.4
2018-Jun-14 14:50N 38°01' E 024°02'5216.0
2018-Jun-14 11:36N 37°37' E 025°00'219.9
2018-Jun-14 11:30N 37°36' E 025°02'713.8
2018-Jun-14 11:00N 37°32' E 025°09'611.1
2018-Jun-14 10:30N 37°29' E 025°15'4 7.6
2018-Jun-14 10:00N 37°28' E 025°20'0 0.0
2018-Jun-14 09:30N 37°28' E 025°20'0 0.1
2018-Jun-14 09:01N 37°28' E 025°20'918.3
2018-Jun-14 08:30N 37°32' E 025°09'4 8.4
2018-Jun-14 08:00N 37°34' E 025°05'54 3.1
2018-Jun-13 14:42N 38°01' E 024°05'5216.2
2018-Jun-13 11:30N 37°36' E 025°03'612.9
2018-Jun-13 11:00N 37°32' E 025°09'712.7
2018-Jun-13 10:26N 37°28' E 025°17'2 4.9
2018-Jun-13 10:00N 37°28' E 025°20'0 0.0
2018-Jun-13 09:30N 37°28' E 025°20'0 0.3
2018-Jun-13 09:00N 37°28' E 025°20'917.6
2018-Jun-13 08:30N 37°32' E 025°10'510.2
2018-Jun-13 08:00N 37°34' E 025°04'5116.4
2018-Jun-13 04:54N 37°60' E 024°08'5 0.4
2018-Jun-12 15:01N 38°01' E 024°02'016.7
2018-Jun-12 15:00N 38°01' E 024°02'5416.2
2018-Jun-12 11:39N 37°36' E 025°03'319.3
2018-Jun-12 11:30N 37°34' E 025°05'4 7.5
2018-Jun-12 11:00N 37°32' E 025°09'612.8
2018-Jun-12 10:30N 37°29' E 025°16'3 6.0
2018-Jun-12 10:00N 37°28' E 025°20'0 0.0
2018-Jun-12 09:30N 37°28' E 025°20'0 0.2
2018-Jun-12 09:00N 37°28' E 025°19'918.1
2018-Jun-12 08:30N 37°32' E 025°09'5 9.7
2018-Jun-12 08:00N 37°35' E 025°04'1219.8
2018-Jun-12 07:23N 37°43' E 024°53'  

Dump ship's entire track history